createdAt,value
2023-03-03T00:01:27.950Z,0.25
2023-03-03T00:03:55.677Z,0.26
2023-03-03T00:06:24.739Z,0.28
2023-03-03T00:08:52.610Z,0.29
2023-03-03T00:11:24.072Z,0.32
2023-03-03T00:13:55.271Z,0.33
2023-03-03T00:16:35.848Z,0.34
2023-03-03T00:19:14.482Z,0.35
2023-03-03T00:21:47.081Z,0.37
2023-03-03T00:24:24.872Z,0.38
2023-03-03T00:26:56.232Z,0.40
2023-03-03T00:29:45.924Z,0.42
2023-03-03T00:32:16.982Z,0.43
2023-03-03T00:34:44.842Z,0.44
2023-03-03T00:37:34.324Z,0.45
2023-03-03T00:40:23.701Z,0.46
2023-03-03T00:42:55.308Z,0.47
2023-03-03T00:45:44.537Z,0.48
2023-03-03T00:48:26.730Z,0.50
2023-03-03T00:50:55.940Z,0.51
2023-03-03T00:53:24.217Z,0.52
2023-03-03T00:55:52.165Z,0.53
2023-03-03T00:58:21.425Z,0.53
2023-03-03T01:00:50.996Z,0.54
2023-03-03T01:03:21.964Z,0.56
2023-03-03T01:05:50.038Z,0.56
2023-03-03T01:08:18.997Z,0.57
2023-03-03T01:10:51.519Z,0.58
2023-03-03T01:13:20.971Z,0.59
2023-03-03T01:15:48.366Z,0.59
2023-03-03T01:18:15.729Z,0.59
2023-03-03T01:20:43.389Z,0.59
2023-03-03T01:23:13.729Z,0.59
2023-03-03T01:25:43.116Z,0.60
2023-03-03T01:28:10.578Z,0.60
2023-03-03T01:30:39.022Z,0.60
2023-03-03T01:33:08.078Z,0.60
2023-03-03T01:35:45.657Z,0.60
2023-03-03T01:38:14.894Z,0.60
2023-03-03T01:40:42.372Z,0.59
2023-03-03T01:43:14.620Z,0.59
2023-03-03T01:46:02.051Z,0.59
2023-03-03T01:48:38.564Z,0.59
2023-03-03T01:51:23.583Z,0.59
2023-03-03T01:53:56.328Z,0.58
2023-03-03T01:56:24.458Z,0.56
2023-03-03T01:58:57.625Z,0.55
2023-03-03T02:01:29.252Z,0.53
2023-03-03T02:04:01.379Z,0.53
2023-03-03T02:06:33.181Z,0.53
2023-03-03T02:09:06.827Z,0.53
2023-03-03T02:11:36.109Z,0.53
2023-03-03T02:14:04.052Z,0.52
2023-03-03T02:16:39.773Z,0.51
2023-03-03T02:19:22.043Z,0.50
2023-03-03T02:21:49.836Z,0.50
2023-03-03T02:24:35.079Z,0.49
2023-03-03T02:27:07.107Z,0.49
2023-03-03T02:29:35.328Z,0.48
2023-03-03T02:32:04.979Z,0.49
2023-03-03T02:34:47.990Z,0.48
2023-03-03T02:37:15.887Z,0.48
2023-03-03T02:39:44.432Z,0.47
2023-03-03T02:42:18.592Z,0.47
2023-03-03T02:44:54.979Z,0.47
2023-03-03T02:47:22.637Z,0.48
2023-03-03T02:49:51.281Z,0.48
2023-03-03T02:52:18.932Z,0.47
2023-03-03T02:54:47.262Z,0.47
2023-03-03T02:57:14.787Z,0.47
2023-03-03T02:59:42.556Z,0.47
2023-03-03T03:02:12.594Z,0.47
2023-03-03T03:04:40.031Z,0.48
2023-03-03T03:07:09.033Z,0.47
2023-03-03T03:09:37.872Z,0.47
2023-03-03T03:12:05.472Z,0.47
2023-03-03T03:14:34.697Z,0.46
2023-03-03T03:17:02.673Z,0.46
2023-03-03T03:19:30.522Z,0.46
2023-03-03T03:22:00.806Z,0.45
2023-03-03T03:24:29.199Z,0.45
2023-03-03T03:27:00.810Z,0.44
2023-03-03T03:29:28.463Z,0.43
2023-03-03T03:31:57.277Z,0.43
2023-03-03T03:34:25.173Z,0.42
2023-03-03T03:36:56.388Z,0.42
2023-03-03T03:39:44.114Z,0.42
2023-03-03T03:42:12.384Z,0.42
2023-03-03T03:44:40.213Z,0.42
2023-03-03T03:47:09.499Z,0.42
2023-03-03T03:49:37.661Z,0.42
2023-03-03T03:52:05.801Z,0.41
2023-03-03T03:54:35.333Z,0.40
2023-03-03T03:57:02.833Z,0.40
2023-03-03T03:59:31.971Z,0.40
2023-03-03T04:02:01.395Z,0.40
2023-03-03T04:04:29.496Z,0.41
2023-03-03T04:06:57.185Z,0.41
2023-03-03T04:09:24.547Z,0.41
2023-03-03T04:11:52.168Z,0.41
2023-03-03T04:14:23.178Z,0.41
2023-03-03T04:16:51.156Z,0.41
2023-03-03T04:19:19.025Z,0.40
2023-03-03T04:21:52.335Z,0.41
2023-03-03T04:24:19.873Z,0.41
2023-03-03T04:26:47.827Z,0.40
2023-03-03T04:29:16.051Z,0.40
2023-03-03T04:31:43.887Z,0.39
2023-03-03T04:34:12.328Z,0.38
2023-03-03T04:36:39.894Z,0.37
2023-03-03T04:39:08.398Z,0.35
2023-03-03T04:41:36.092Z,0.34
2023-03-03T04:44:04.428Z,0.33
2023-03-03T04:46:32.532Z,0.32
2023-03-03T04:49:00.401Z,0.32
2023-03-03T04:51:28.103Z,0.31
2023-03-03T04:53:56.213Z,0.31
2023-03-03T04:56:24.458Z,0.31
2023-03-03T04:58:52.093Z,0.32
2023-03-03T05:01:19.573Z,0.34
2023-03-03T05:03:47.599Z,0.36
2023-03-03T05:06:15.036Z,0.38
2023-03-03T05:08:42.952Z,0.40
2023-03-03T05:11:10.420Z,0.42
2023-03-03T05:13:39.921Z,0.45
2023-03-03T05:16:07.756Z,0.49
2023-03-03T05:18:35.195Z,0.51
2023-03-03T05:21:03.695Z,0.54
2023-03-03T05:23:31.614Z,0.57
2023-03-03T05:26:03.141Z,0.59
2023-03-03T05:28:31.010Z,0.62
2023-03-03T05:30:58.778Z,0.65
2023-03-03T05:33:26.505Z,0.68
2023-03-03T05:35:55.840Z,0.71
2023-03-03T05:38:24.103Z,0.74
2023-03-03T05:40:51.651Z,0.77
2023-03-03T05:43:19.625Z,0.80
2023-03-03T05:45:47.134Z,0.83
2023-03-03T05:48:14.544Z,0.87
2023-03-03T05:50:42.664Z,0.92
2023-03-03T05:53:10.412Z,0.97
2023-03-03T05:55:37.824Z,1.02
2023-03-03T05:58:05.177Z,1.07
2023-03-03T06:00:32.588Z,1.12
2023-03-03T06:03:01.015Z,1.16
2023-03-03T06:05:31.523Z,1.20
2023-03-03T06:08:00.643Z,1.25
2023-03-03T06:10:28.034Z,1.29
2023-03-03T06:12:55.910Z,1.34
2023-03-03T06:15:23.433Z,1.40
2023-03-03T06:17:52.635Z,1.47
2023-03-03T06:20:20.533Z,1.55
2023-03-03T06:22:47.935Z,1.61
2023-03-03T06:25:16.858Z,1.69
2023-03-03T06:27:44.751Z,1.75
2023-03-03T06:30:16.368Z,1.80
2023-03-03T06:32:43.867Z,1.86
2023-03-03T06:35:11.504Z,1.93
2023-03-03T06:37:39.116Z,2.00
2023-03-03T06:40:07.594Z,2.07
2023-03-03T06:42:38.547Z,2.12
2023-03-03T06:45:06.805Z,2.18
2023-03-03T06:47:34.728Z,2.25
2023-03-03T06:50:04.769Z,2.32
2023-03-03T06:52:32.481Z,2.39
2023-03-03T06:55:01.295Z,2.46
2023-03-03T06:57:30.949Z,2.52
2023-03-03T07:00:20.064Z,2.59
2023-03-03T07:03:15.636Z,2.67
2023-03-03T07:05:44.824Z,2.78
2023-03-03T07:08:20.094Z,2.87
2023-03-03T07:10:48.064Z,2.97
2023-03-03T07:13:23.373Z,3.08
2023-03-03T07:15:52.984Z,3.19
2023-03-03T07:18:35.577Z,3.27
2023-03-03T07:21:27.375Z,3.37
2023-03-03T07:23:55.000Z,3.45
2023-03-03T07:26:30.491Z,3.50
2023-03-03T07:29:09.768Z,3.56
2023-03-03T07:31:39.199Z,3.64
2023-03-03T07:34:25.290Z,3.69
2023-03-03T07:37:04.450Z,3.74
2023-03-03T07:39:37.777Z,3.77
2023-03-03T07:42:15.607Z,3.82
2023-03-03T07:44:43.263Z,3.89
2023-03-03T07:47:37.065Z,3.95
2023-03-03T07:50:18.398Z,4.01
2023-03-03T07:52:56.376Z,4.04
2023-03-03T07:55:32.852Z,4.05
2023-03-03T07:58:15.250Z,4.06
2023-03-03T08:01:13.086Z,4.09
2023-03-03T08:03:40.551Z,4.14
2023-03-03T08:06:30.438Z,4.19
2023-03-03T08:09:19.319Z,4.26
2023-03-03T08:12:02.078Z,4.33
2023-03-03T08:14:31.500Z,4.42
2023-03-03T08:17:00.573Z,4.50
2023-03-03T08:19:29.997Z,4.57
2023-03-03T08:22:17.838Z,4.63
2023-03-03T08:24:47.035Z,4.67
2023-03-03T08:27:14.387Z,4.72
2023-03-03T08:29:41.777Z,4.75
2023-03-03T08:32:09.320Z,4.76
2023-03-03T08:34:37.283Z,4.80
2023-03-03T08:37:09.861Z,4.82
2023-03-03T08:39:37.318Z,4.85
2023-03-03T08:42:05.063Z,4.89
2023-03-03T08:44:32.818Z,4.94
2023-03-03T08:47:00.909Z,5.02
2023-03-03T08:49:35.052Z,5.09
2023-03-03T08:52:02.448Z,5.18
2023-03-03T08:54:30.222Z,5.29
2023-03-03T08:56:58.406Z,5.37
2023-03-03T08:59:25.925Z,5.44
2023-03-03T09:01:53.364Z,5.45
2023-03-03T09:04:21.669Z,5.44
2023-03-03T09:06:49.457Z,5.50
2023-03-03T09:09:17.522Z,5.52
2023-03-03T09:11:44.889Z,5.53
2023-03-03T09:14:14.461Z,5.58
2023-03-03T09:16:50.088Z,5.64
2023-03-03T09:19:30.354Z,5.67
2023-03-03T09:22:19.451Z,5.65
2023-03-03T09:24:47.745Z,5.61
2023-03-03T09:27:39.260Z,5.62
2023-03-03T09:30:25.927Z,5.62
2023-03-03T09:32:56.645Z,5.69
2023-03-03T09:35:37.234Z,5.80
2023-03-03T09:38:25.600Z,5.85
2023-03-03T09:41:02.722Z,5.84
2023-03-03T09:44:16.821Z,5.84
2023-03-03T09:47:03.591Z,5.88
2023-03-03T09:49:32.915Z,5.97
2023-03-03T09:52:23.088Z,6.04
2023-03-03T09:55:02.807Z,6.09
2023-03-03T09:57:55.726Z,6.17
2023-03-03T10:00:28.990Z,6.28
2023-03-03T10:02:59.327Z,6.39
2023-03-03T10:05:39.683Z,6.53
2023-03-03T10:08:19.416Z,6.69
2023-03-03T10:10:53.845Z,6.80
2023-03-03T10:13:42.756Z,6.86
2023-03-03T10:16:36.009Z,6.78
2023-03-03T10:19:35.464Z,6.60
2023-03-03T10:22:24.755Z,6.46
2023-03-03T10:24:58.471Z,6.33
2023-03-03T10:27:34.377Z,6.23
2023-03-03T10:30:14.400Z,6.17
2023-03-03T10:33:01.775Z,6.09
2023-03-03T10:35:42.593Z,5.95
2023-03-03T10:38:19.897Z,5.87
2023-03-03T10:40:59.069Z,5.84
2023-03-03T10:43:53.213Z,5.84
2023-03-03T10:46:33.388Z,5.87
2023-03-03T10:49:13.245Z,5.88
2023-03-03T10:52:08.373Z,5.88
2023-03-03T10:54:48.204Z,5.87
2023-03-03T10:57:27.025Z,5.83
2023-03-03T11:00:00.843Z,5.72
2023-03-03T11:02:32.084Z,5.63
2023-03-03T11:05:02.114Z,5.57
2023-03-03T11:07:42.255Z,5.56
2023-03-03T11:10:30.673Z,5.55
2023-03-03T11:13:19.460Z,5.54
2023-03-03T11:16:14.608Z,5.49
2023-03-03T11:19:07.950Z,5.47
2023-03-03T11:21:47.232Z,5.50
2023-03-03T11:24:25.281Z,5.55
2023-03-03T11:27:17.383Z,5.61
2023-03-03T11:30:28.926Z,5.65
2023-03-03T11:33:04.845Z,5.72
2023-03-03T11:35:41.447Z,5.75
2023-03-03T11:38:44.531Z,5.75
2023-03-03T11:41:32.077Z,5.77
2023-03-03T11:44:08.692Z,5.77
2023-03-03T11:46:55.674Z,5.75
2023-03-03T11:49:57.405Z,5.71
2023-03-03T11:52:43.601Z,5.68
2023-03-03T11:55:39.231Z,5.63
2023-03-03T11:58:16.102Z,5.58
2023-03-03T12:00:52.457Z,5.54
2023-03-03T12:03:49.626Z,5.51
2023-03-03T12:06:26.257Z,5.51
2023-03-03T12:09:19.835Z,5.51
2023-03-03T12:11:54.331Z,5.52
2023-03-03T12:14:29.660Z,5.52
2023-03-03T12:17:00.899Z,5.52
2023-03-03T12:19:40.707Z,5.51
2023-03-03T12:22:23.528Z,5.52
2023-03-03T12:25:01.319Z,5.51
2023-03-03T12:27:32.587Z,5.46
2023-03-03T12:30:33.663Z,5.42
2023-03-03T12:33:20.000Z,5.34
2023-03-03T12:35:55.062Z,5.30
2023-03-03T12:38:32.038Z,5.26
2023-03-03T12:41:01.761Z,5.22
2023-03-03T12:43:52.057Z,5.19
2023-03-03T12:46:33.930Z,5.16
2023-03-03T12:49:01.794Z,5.13
2023-03-03T12:51:50.468Z,5.11
2023-03-03T12:54:53.764Z,5.09
2023-03-03T12:57:35.640Z,5.07
2023-03-03T13:00:15.809Z,5.01
2023-03-03T13:02:50.840Z,4.99
2023-03-03T13:05:45.390Z,4.95
2023-03-03T13:08:36.890Z,4.94
2023-03-03T13:11:08.244Z,4.90
2023-03-03T13:14:00.348Z,4.88
2023-03-03T13:16:41.110Z,4.84
2023-03-03T13:19:17.626Z,4.81
2023-03-03T13:21:53.207Z,4.76
2023-03-03T13:24:27.014Z,4.74
2023-03-03T13:26:58.288Z,4.69
2023-03-03T13:29:51.654Z,4.67
2023-03-03T13:32:30.604Z,4.66
2023-03-03T13:35:09.268Z,4.68
2023-03-03T13:37:45.171Z,4.70
2023-03-03T13:40:13.013Z,4.72
2023-03-03T13:42:56.281Z,4.73
2023-03-03T13:45:49.082Z,4.73
2023-03-03T13:48:43.048Z,4.73
2023-03-03T13:51:17.203Z,4.74
2023-03-03T13:54:18.810Z,4.74
2023-03-03T13:56:46.246Z,4.72
2023-03-03T13:59:51.471Z,4.69
2023-03-03T14:02:19.472Z,4.70
2023-03-03T14:04:54.632Z,4.71
2023-03-03T14:07:28.785Z,4.72
2023-03-03T14:10:19.561Z,4.72
2023-03-03T14:12:59.997Z,4.69
2023-03-03T14:15:28.588Z,4.66
2023-03-03T14:18:08.706Z,4.64
2023-03-03T14:20:41.444Z,4.61
2023-03-03T14:23:12.990Z,4.59
2023-03-03T14:26:01.391Z,4.55
2023-03-03T14:28:30.095Z,4.51
2023-03-03T14:30:58.080Z,4.47
2023-03-03T14:33:30.906Z,4.43
2023-03-03T14:35:58.959Z,4.38
2023-03-03T14:38:32.829Z,4.34
2023-03-03T14:41:14.434Z,4.31
2023-03-03T14:43:57.597Z,4.28
2023-03-03T14:46:30.131Z,4.26
2023-03-03T14:48:59.697Z,4.23
2023-03-03T14:51:29.884Z,4.20
2023-03-03T14:53:57.634Z,4.17
2023-03-03T14:56:28.813Z,4.15
2023-03-03T14:59:23.552Z,4.11
2023-03-03T15:02:17.267Z,4.05
2023-03-03T15:04:45.229Z,4.01
2023-03-03T15:07:30.848Z,3.96
2023-03-03T15:09:58.310Z,3.92
2023-03-03T15:12:32.127Z,3.88
2023-03-03T15:15:11.194Z,3.84
2023-03-03T15:18:02.276Z,3.80
2023-03-03T15:20:45.260Z,3.76
2023-03-03T15:23:35.011Z,3.72
2023-03-03T15:26:26.508Z,3.67
2023-03-03T15:28:58.253Z,3.62
2023-03-03T15:31:51.793Z,3.58
2023-03-03T15:34:59.507Z,3.54
2023-03-03T15:37:50.226Z,3.48
2023-03-03T15:40:34.720Z,3.45
2023-03-03T15:43:34.970Z,3.39
2023-03-03T15:46:43.897Z,3.36
2023-03-03T15:49:29.888Z,3.32
2023-03-03T15:52:22.241Z,3.28
2023-03-03T15:54:57.455Z,3.24
2023-03-03T15:57:40.928Z,3.21
2023-03-03T16:00:26.562Z,3.19
2023-03-03T16:02:58.725Z,3.15
2023-03-03T16:05:29.507Z,3.13
2023-03-03T16:08:00.892Z,3.09
2023-03-03T16:10:41.304Z,3.07
2023-03-03T16:13:24.778Z,3.04
2023-03-03T16:16:03.542Z,3.00
2023-03-03T16:18:33.869Z,2.95
2023-03-03T16:21:26.734Z,2.91
2023-03-03T16:24:18.424Z,2.86
2023-03-03T16:27:05.937Z,2.79
2023-03-03T16:29:43.027Z,2.71
2023-03-03T16:32:26.991Z,2.62
2023-03-03T16:34:58.249Z,2.54
2023-03-03T16:37:40.237Z,2.47
2023-03-03T16:40:48.707Z,2.41
2023-03-03T16:43:53.775Z,2.35
2023-03-03T16:46:43.470Z,2.31
2023-03-03T16:49:23.391Z,2.29
2023-03-03T16:52:03.535Z,2.28
2023-03-03T16:54:54.185Z,2.27
2023-03-03T16:57:33.783Z,2.27
2023-03-03T17:00:14.473Z,2.28
2023-03-03T17:02:49.502Z,2.30
2023-03-03T17:05:33.210Z,2.31
2023-03-03T17:08:29.069Z,2.33
2023-03-03T17:11:18.913Z,2.35
2023-03-03T17:13:52.068Z,2.36
2023-03-03T17:16:52.687Z,2.36
2023-03-03T17:19:30.166Z,2.37
2023-03-03T17:22:08.703Z,2.36
2023-03-03T17:25:04.852Z,2.36
2023-03-03T17:27:56.937Z,2.34
2023-03-03T17:30:35.630Z,2.32
2023-03-03T17:33:51.925Z,2.30
2023-03-03T17:36:25.161Z,2.28
2023-03-03T17:38:59.254Z,2.26
2023-03-03T17:41:55.195Z,2.26
2023-03-03T17:44:34.752Z,2.27
2023-03-03T17:47:05.721Z,2.27
2023-03-03T17:49:57.367Z,2.27
2023-03-03T17:52:31.286Z,2.28
2023-03-03T17:55:23.839Z,2.28
2023-03-03T17:58:06.991Z,2.28
2023-03-03T18:01:06.990Z,2.28
2023-03-03T18:03:44.780Z,2.28
2023-03-03T18:06:53.809Z,2.27
2023-03-03T18:09:31.151Z,2.27
2023-03-03T18:12:12.517Z,2.28
2023-03-03T18:14:46.159Z,2.26
2023-03-03T18:17:34.239Z,2.25
2023-03-03T18:20:08.265Z,2.24
2023-03-03T18:22:50.891Z,2.21
2023-03-03T18:25:19.688Z,2.18
2023-03-03T18:28:15.637Z,2.14
2023-03-03T18:31:02.880Z,2.08
2023-03-03T18:33:32.674Z,2.01
2023-03-03T18:36:32.601Z,1.94
2023-03-03T18:39:01.255Z,1.84
2023-03-03T18:42:14.385Z,1.76
2023-03-03T18:44:45.482Z,1.65
2023-03-03T18:47:14.877Z,1.58
2023-03-03T18:49:55.268Z,1.51
2023-03-03T18:52:28.178Z,1.44
2023-03-03T18:55:05.971Z,1.40
2023-03-03T18:57:33.685Z,1.35
2023-03-03T19:00:24.513Z,1.30
2023-03-03T19:02:59.556Z,1.25
2023-03-03T19:05:38.638Z,1.19
2023-03-03T19:08:22.658Z,1.12
2023-03-03T19:10:57.840Z,1.06
2023-03-03T19:13:34.399Z,1.01
2023-03-03T19:16:03.826Z,1.00
2023-03-03T19:18:47.059Z,1.01
2023-03-03T19:21:35.080Z,1.03
2023-03-03T19:24:04.686Z,1.07
2023-03-03T19:26:50.520Z,1.09
2023-03-03T19:29:22.081Z,1.13
2023-03-03T19:32:21.142Z,1.15
2023-03-03T19:34:52.826Z,1.17
2023-03-03T19:37:33.943Z,1.19
2023-03-03T19:40:22.541Z,1.21
2023-03-03T19:43:09.071Z,1.24
2023-03-03T19:46:22.800Z,1.28
2023-03-03T19:48:53.597Z,1.33
2023-03-03T19:51:45.851Z,1.37
2023-03-03T19:54:25.829Z,1.38
2023-03-03T19:56:55.376Z,1.39
2023-03-03T19:59:29.142Z,1.38
2023-03-03T20:02:12.840Z,1.34
2023-03-03T20:04:53.056Z,1.31
2023-03-03T20:07:53.555Z,1.27
2023-03-03T20:10:48.864Z,1.23
2023-03-03T20:13:37.690Z,1.22
2023-03-03T20:16:11.252Z,1.21
2023-03-03T20:18:58.609Z,1.21
2023-03-03T20:21:53.634Z,1.21
2023-03-03T20:24:55.267Z,1.22
2023-03-03T20:27:45.732Z,1.20
2023-03-03T20:31:01.829Z,1.15
2023-03-03T20:33:48.059Z,1.10
2023-03-03T20:36:31.199Z,1.04
2023-03-03T20:39:04.009Z,0.98
2023-03-03T20:41:58.481Z,0.95
2023-03-03T20:44:45.020Z,0.88
2023-03-03T20:47:21.642Z,0.82
2023-03-03T20:49:58.217Z,0.77
2023-03-03T20:52:31.329Z,0.74
2023-03-03T20:55:10.764Z,0.71
2023-03-03T20:58:02.564Z,0.67
2023-03-03T21:00:32.516Z,0.65
2023-03-03T21:03:10.866Z,0.61
2023-03-03T21:06:00.537Z,0.54
2023-03-03T21:08:54.568Z,0.50
2023-03-03T21:11:32.435Z,0.46
2023-03-03T21:14:01.330Z,0.43
2023-03-03T21:16:32.538Z,0.39
2023-03-03T21:19:02.152Z,0.34
2023-03-03T21:21:40.319Z,0.29
2023-03-03T21:24:12.956Z,0.25
2023-03-03T21:26:44.926Z,0.23
2023-03-03T21:29:18.529Z,0.20
2023-03-03T21:31:47.842Z,0.19
2023-03-03T21:34:38.841Z,0.18
2023-03-03T21:37:11.097Z,0.16
2023-03-03T21:39:43.629Z,0.14
2023-03-03T21:42:14.282Z,0.11
2023-03-03T21:44:46.518Z,0.07
2023-03-03T21:47:19.652Z,0.02
2023-03-03T21:50:00.607Z,0.01
2023-03-03T21:52:28.217Z,-0.00
2023-03-03T21:54:55.911Z,-0.03
2023-03-03T21:57:27.638Z,-0.08
2023-03-03T21:59:57.571Z,-0.10
2023-03-03T22:02:25.170Z,-0.14
2023-03-03T22:04:53.135Z,-0.18
2023-03-03T22:07:20.682Z,-0.20
2023-03-03T22:09:51.380Z,-0.23
2023-03-03T22:12:19.424Z,-0.26
2023-03-03T22:14:49.140Z,-0.29
2023-03-03T22:17:16.696Z,-0.33
2023-03-03T22:19:44.549Z,-0.35
2023-03-03T22:22:13.974Z,-0.39
2023-03-03T22:24:42.438Z,-0.44
2023-03-03T22:27:16.505Z,-0.47
2023-03-03T22:29:44.234Z,-0.51
2023-03-03T22:32:11.816Z,-0.53
2023-03-03T22:34:40.014Z,-0.58
2023-03-03T22:37:07.992Z,-0.62
2023-03-03T22:39:39.054Z,-0.67
2023-03-03T22:42:07.355Z,-0.72
2023-03-03T22:44:34.917Z,-0.75
2023-03-03T22:47:03.415Z,-0.79
2023-03-03T22:49:31.232Z,-0.83
2023-03-03T22:51:58.916Z,-0.86
2023-03-03T22:54:31.711Z,-0.92
2023-03-03T22:56:59.582Z,-0.95
2023-03-03T22:59:28.147Z,-0.99
2023-03-03T23:01:57.569Z,-1.02
2023-03-03T23:04:27.366Z,-1.05
2023-03-03T23:07:01.175Z,-1.09
2023-03-03T23:09:33.357Z,-1.13
2023-03-03T23:12:07.124Z,-1.17
2023-03-03T23:14:35.122Z,-1.21
2023-03-03T23:17:02.988Z,-1.23
2023-03-03T23:19:30.929Z,-1.26
2023-03-03T23:21:59.000Z,-1.28
2023-03-03T23:24:26.636Z,-1.30
2023-03-03T23:27:08.815Z,-1.32
2023-03-03T23:29:37.985Z,-1.33
2023-03-03T23:32:07.433Z,-1.34
2023-03-03T23:34:37.370Z,-1.35
2023-03-03T23:37:08.097Z,-1.36
2023-03-03T23:39:36.295Z,-1.35
2023-03-03T23:42:04.271Z,-1.33
2023-03-03T23:44:31.989Z,-1.31
2023-03-03T23:47:06.934Z,-1.29
2023-03-03T23:49:35.288Z,-1.27
2023-03-03T23:52:02.892Z,-1.28
2023-03-03T23:54:30.448Z,-1.29
2023-03-03T23:56:58.159Z,-1.31
2023-03-03T23:59:25.631Z,-1.30
